ADDS TAF Board (Experimental) INFO Settings
IDs: Format: Expanded Condensed

KMSP - Minneapolis-St Paul, MN, US

Issued at 2333 UTC 07 Jul 2015
Updated at: 0216 UTC 08 Jul 2015
Time0153Z 08/03Z 08/04Z 08/05Z 08/06Z 08/07Z 08/08Z 08/09Z 08/10Z 08/11Z 08/12Z 08/13Z 08/14Z 08/15Z
Type OBS PRVL PRVL PRVL PRVL PRVL PRVL PRVL PRVL PRVL PRVL PRVL PRVL PRVL
VIS 10 >6 >6 >6 >6 >6 >6 >6 >6 >6 >6 >6 >6 >6
CIG 300 -- -- -- -- -- -- -- -- -- -- -- -- --
Cover BKN SCT SCT SCT SCT SCT SCT SCT SCT SCT SCT SCT SCT SCT
FltCat VFR VFR VFR VFR VFR VFR VFR VFR VFR VFR VFR VFR VFR VFR
WX -- -- -- -- -- -- -- -- -- -- -- -- -- --
WDir 40 VRB VRB VRB VRB VRB 140 140 140 140 140 140 140 140
WSpd 6 4 4 4 4 4 5 5 5 5 5 5 5 5
WGst -- -- -- -- -- -- -- -- -- -- -- -- -- --
R04/22
XWnd 1 VRB VRB VRB VRB VRB -5 -5 -5 -5 -5 -5 -5 -5
HWnd 6 VRB VRB VRB VRB VRB -0 -0 -0 -0 -0 -0 -0 -0
R12/30
XWnd 6 VRB VRB VRB VRB VRB -2 -2 -2 -2 -2 -2 -2 -2
HWnd 1 VRB VRB VRB VRB VRB 5 5 5 5 5 5 5 5
R17/35
XWnd 5 VRB VRB VRB VRB VRB 2 2 2 2 2 2 2 2
HWnd -4 VRB VRB VRB VRB VRB 4 4 4 4 4 4 4 4

NOTE: TEMPO conditions in [brackets]. Keep in mind TEMPO conditions might be better (lower impact) than prevailing conditions.

Raw TAF
KMSP 072333Z 0800/0906 VRB04KT P6SM FEW050 SCT250
  FM080800 14005KT P6SM FEW050 SCT250
  FM081600 18007KT P6SM BKN050
  FM090000 20004KT P6SM FEW050 BKN250


Raw METAR
KMSP 080153Z 04006KT 10SM FEW050 BKN300 19/08 A3010 RMK AO2 SLP192 T01940078
KMSP 080053Z 01006KT 10SM FEW050 BKN300 21/08 A3010 RMK AO2 SLP192 T02060078
KMSP 072353Z 10005KT 10SM FEW050 BKN300 21/08 A3010 RMK AO2 SLP194 T02110078 10222 20189 56010

METAR Board
Radar Display
Forecast Discussion

TAF Board Legend

Potential Impact
Threat None Slight Moderate High
Visibility (sm) ≥5.1 5.1>X≥3 3>X≥1 <1
Ceiling (100 ft) ≥30.1 30.1>X≥10 10>X≥5 <5
Wind Speed (kt) <10 10≤X<20 20≤X<30 ≥30
Wind Gust (kt) <15 15≤X<25 25≤X<35 ≥35
Weather No Wx Reported VCTS,-TS,-FZRA,SN TS,FZRA +TS,+FZRA,+SN